sensor_id;sensor_type;location;lat;lon;timestamp;temperature;humidity
21592;DHT22;10958;50.892;3.992;2022-08-07T00:00:10;16.80;99.90
21592;DHT22;10958;50.892;3.992;2022-08-07T00:02:35;16.70;99.90
21592;DHT22;10958;50.892;3.992;2022-08-07T00:05:02;16.60;99.90
21592;DHT22;10958;50.892;3.992;2022-08-07T00:07:28;16.50;99.90
21592;DHT22;10958;50.892;3.992;2022-08-07T00:09:53;16.60;99.90
21592;DHT22;10958;50.892;3.992;2022-08-07T00:12:19;16.60;99.90
21592;DHT22;10958;50.892;3.992;2022-08-07T00:14:45;16.60;99.90
21592;DHT22;10958;50.892;3.992;2022-08-07T00:17:10;16.70;99.90
21592;DHT22;10958;50.892;3.992;2022-08-07T00:19:37;16.70;99.90
21592;DHT22;10958;50.892;3.992;2022-08-07T00:22:03;17.00;99.90
21592;DHT22;10958;50.892;3.992;2022-08-07T00:24:31;17.10;99.90
21592;DHT22;10958;50.892;3.992;2022-08-07T00:26:56;17.10;99.90
21592;DHT22;10958;50.892;3.992;2022-08-07T00:29:22;17.00;99.90
21592;DHT22;10958;50.892;3.992;2022-08-07T00:31:52;17.10;99.90
21592;DHT22;10958;50.892;3.992;2022-08-07T00:34:19;17.30;99.90
21592;DHT22;10958;50.892;3.992;2022-08-07T00:36:44;17.20;99.90
21592;DHT22;10958;50.892;3.992;2022-08-07T00:39:13;17.30;99.90
21592;DHT22;10958;50.892;3.992;2022-08-07T00:41:39;17.30;99.90
21592;DHT22;10958;50.892;3.992;2022-08-07T00:44:11;17.30;99.90
21592;DHT22;10958;50.892;3.992;2022-08-07T00:46:37;17.30;99.90
21592;DHT22;10958;50.892;3.992;2022-08-07T00:49:03;17.30;99.90
21592;DHT22;10958;50.892;3.992;2022-08-07T00:51:29;17.50;99.90
21592;DHT22;10958;50.892;3.992;2022-08-07T00:53:55;17.50;99.90
21592;DHT22;10958;50.892;3.992;2022-08-07T00:56:22;17.50;99.90
21592;DHT22;10958;50.892;3.992;2022-08-07T00:59:06;17.40;99.90
21592;DHT22;10958;50.892;3.992;2022-08-07T01:01:32;17.50;99.90
21592;DHT22;10958;50.892;3.992;2022-08-07T01:03:58;17.50;99.90
21592;DHT22;10958;50.892;3.992;2022-08-07T01:06:25;17.60;99.90
21592;DHT22;10958;50.892;3.992;2022-08-07T01:08:51;17.50;99.90
21592;DHT22;10958;50.892;3.992;2022-08-07T01:11:17;17.50;99.90
21592;DHT22;10958;50.892;3.992;2022-08-07T01:13:43;17.40;99.90
21592;DHT22;10958;50.892;3.992;2022-08-07T01:16:08;17.30;99.90
21592;DHT22;10958;50.892;3.992;2022-08-07T01:18:35;17.30;99.90
21592;DHT22;10958;50.892;3.992;2022-08-07T01:21:13;17.20;99.90
21592;DHT22;10958;50.892;3.992;2022-08-07T01:23:41;17.10;99.90
21592;DHT22;10958;50.892;3.992;2022-08-07T01:26:08;17.10;99.90
21592;DHT22;10958;50.892;3.992;2022-08-07T01:28:34;17.20;99.90
21592;DHT22;10958;50.892;3.992;2022-08-07T01:31:01;17.10;99.90
21592;DHT22;10958;50.892;3.992;2022-08-07T01:36:03;17.00;99.90
21592;DHT22;10958;50.892;3.992;2022-08-07T01:38:29;17.00;99.90
21592;DHT22;10958;50.892;3.992;2022-08-07T01:41:01;16.90;99.90
21592;DHT22;10958;50.892;3.992;2022-08-07T01:43:28;16.80;99.90
21592;DHT22;10958;50.892;3.992;2022-08-07T01:45:55;16.60;99.90
21592;DHT22;10958;50.892;3.992;2022-08-07T01:48:21;16.40;99.90
21592;DHT22;10958;50.892;3.992;2022-08-07T01:51:03;16.40;99.90
21592;DHT22;10958;50.892;3.992;2022-08-07T01:53:32;16.50;99.90
21592;DHT22;10958;50.892;3.992;2022-08-07T01:56:02;16.60;99.90
21592;DHT22;10958;50.892;3.992;2022-08-07T01:58:37;16.50;99.90
21592;DHT22;10958;50.892;3.992;2022-08-07T02:01:13;16.60;99.90
21592;DHT22;10958;50.892;3.992;2022-08-07T02:03:42;16.60;99.90
21592;DHT22;10958;50.892;3.992;2022-08-07T02:06:12;16.50;99.90
21592;DHT22;10958;50.892;3.992;2022-08-07T02:08:41;16.60;99.90
21592;DHT22;10958;50.892;3.992;2022-08-07T02:11:09;16.60;99.90
21592;DHT22;10958;50.892;3.992;2022-08-07T02:13:36;16.60;99.90
21592;DHT22;10958;50.892;3.992;2022-08-07T02:16:05;16.60;99.90
21592;DHT22;10958;50.892;3.992;2022-08-07T02:18:34;16.50;99.90
21592;DHT22;10958;50.892;3.992;2022-08-07T02:21:03;16.60;99.90
21592;DHT22;10958;50.892;3.992;2022-08-07T02:23:35;16.50;99.90
21592;DHT22;10958;50.892;3.992;2022-08-07T02:26:03;16.50;99.90
21592;DHT22;10958;50.892;3.992;2022-08-07T02:28:30;16.30;99.90
21592;DHT22;10958;50.892;3.992;2022-08-07T02:30:58;16.30;99.90
21592;DHT22;10958;50.892;3.992;2022-08-07T02:33:26;16.30;99.90
21592;DHT22;10958;50.892;3.992;2022-08-07T02:35:53;16.40;99.90
21592;DHT22;10958;50.892;3.992;2022-08-07T02:38:21;16.50;99.90
21592;DHT22;10958;50.892;3.992;2022-08-07T02:40:49;16.40;99.90
21592;DHT22;10958;50.892;3.992;2022-08-07T02:43:16;16.40;99.90
21592;DHT22;10958;50.892;3.992;2022-08-07T02:45:43;16.40;99.90
21592;DHT22;10958;50.892;3.992;2022-08-07T02:48:10;16.30;99.90
21592;DHT22;10958;50.892;3.992;2022-08-07T02:50:43;16.20;99.90
21592;DHT22;10958;50.892;3.992;2022-08-07T02:53:19;16.20;99.90
21592;DHT22;10958;50.892;3.992;2022-08-07T02:55:46;16.20;99.90
21592;DHT22;10958;50.892;3.992;2022-08-07T02:58:17;16.10;99.90
21592;DHT22;10958;50.892;3.992;2022-08-07T03:00:44;15.90;99.90
21592;DHT22;10958;50.892;3.992;2022-08-07T03:03:15;15.80;99.90
21592;DHT22;10958;50.892;3.992;2022-08-07T03:05:42;15.70;99.90
21592;DHT22;10958;50.892;3.992;2022-08-07T03:08:09;15.60;99.90
21592;DHT22;10958;50.892;3.992;2022-08-07T03:10:36;15.40;99.90
21592;DHT22;10958;50.892;3.992;2022-08-07T03:13:03;15.40;99.90
21592;DHT22;10958;50.892;3.992;2022-08-07T03:15:30;15.50;99.90
21592;DHT22;10958;50.892;3.992;2022-08-07T03:17:56;15.50;99.90
21592;DHT22;10958;50.892;3.992;2022-08-07T03:27:45;15.30;99.90
21592;DHT22;10958;50.892;3.992;2022-08-07T03:30:13;15.40;99.90
21592;DHT22;10958;50.892;3.992;2022-08-07T03:32:40;15.30;99.90
21592;DHT22;10958;50.892;3.992;2022-08-07T03:35:15;15.00;99.90
21592;DHT22;10958;50.892;3.992;2022-08-07T03:37:43;15.00;99.90
21592;DHT22;10958;50.892;3.992;2022-08-07T03:40:10;14.80;99.90
21592;DHT22;10958;50.892;3.992;2022-08-07T03:42:36;14.80;99.90
21592;DHT22;10958;50.892;3.992;2022-08-07T03:45:03;15.00;99.90
21592;DHT22;10958;50.892;3.992;2022-08-07T03:47:30;15.20;99.90
21592;DHT22;10958;50.892;3.992;2022-08-07T03:49:56;15.30;99.90
21592;DHT22;10958;50.892;3.992;2022-08-07T03:52:25;15.40;99.90
21592;DHT22;10958;50.892;3.992;2022-08-07T03:54:52;15.50;99.90
21592;DHT22;10958;50.892;3.992;2022-08-07T03:57:19;15.50;99.90
21592;DHT22;10958;50.892;3.992;2022-08-07T03:59:45;15.40;99.90
21592;DHT22;10958;50.892;3.992;2022-08-07T04:02:11;15.40;99.90
21592;DHT22;10958;50.892;3.992;2022-08-07T04:04:38;15.20;99.90
21592;DHT22;10958;50.892;3.992;2022-08-07T04:07:06;15.30;99.90
21592;DHT22;10958;50.892;3.992;2022-08-07T04:09:34;15.30;99.90
21592;DHT22;10958;50.892;3.992;2022-08-07T04:12:00;15.30;99.90
21592;DHT22;10958;50.892;3.992;2022-08-07T04:14:26;15.30;99.90
21592;DHT22;10958;50.892;3.992;2022-08-07T04:16:52;15.20;99.90
21592;DHT22;10958;50.892;3.992;2022-08-07T04:19:19;15.30;99.90
21592;DHT22;10958;50.892;3.992;2022-08-07T04:21:45;15.40;99.90
21592;DHT22;10958;50.892;3.992;2022-08-07T04:24:11;15.50;99.90
21592;DHT22;10958;50.892;3.992;2022-08-07T04:26:38;15.50;99.90
21592;DHT22;10958;50.892;3.992;2022-08-07T04:29:06;15.50;99.90
21592;DHT22;10958;50.892;3.992;2022-08-07T04:31:38;15.60;99.90
21592;DHT22;10958;50.892;3.992;2022-08-07T04:34:07;15.60;99.90
21592;DHT22;10958;50.892;3.992;2022-08-07T04:36:33;15.80;99.90
21592;DHT22;10958;50.892;3.992;2022-08-07T04:39:03;16.00;99.90
21592;DHT22;10958;50.892;3.992;2022-08-07T04:41:29;16.00;99.90
21592;DHT22;10958;50.892;3.992;2022-08-07T04:43:55;16.00;99.90
21592;DHT22;10958;50.892;3.992;2022-08-07T04:56:51;15.70;99.90
21592;DHT22;10958;50.892;3.992;2022-08-07T04:59:45;15.70;99.90
21592;DHT22;10958;50.892;3.992;2022-08-07T05:02:32;15.80;99.90
21592;DHT22;10958;50.892;3.992;2022-08-07T05:05:08;15.80;99.90
21592;DHT22;10958;50.892;3.992;2022-08-07T05:12:53;15.60;99.90
21592;DHT22;10958;50.892;3.992;2022-08-07T05:15:35;15.60;99.90
21592;DHT22;10958;50.892;3.992;2022-08-07T05:18:22;15.70;99.90
21592;DHT22;10958;50.892;3.992;2022-08-07T05:20:56;15.80;99.90
21592;DHT22;10958;50.892;3.992;2022-08-07T05:23:31;15.90;99.90
21592;DHT22;10958;50.892;3.992;2022-08-07T05:26:00;15.70;99.90
21592;DHT22;10958;50.892;3.992;2022-08-07T05:28:28;15.60;99.90
21592;DHT22;10958;50.892;3.992;2022-08-07T05:30:57;15.60;99.90
21592;DHT22;10958;50.892;3.992;2022-08-07T05:33:24;15.70;99.90
21592;DHT22;10958;50.892;3.992;2022-08-07T05:35:52;16.00;99.90
21592;DHT22;10958;50.892;3.992;2022-08-07T05:38:20;16.00;99.90
21592;DHT22;10958;50.892;3.992;2022-08-07T05:40:46;15.90;99.90
21592;DHT22;10958;50.892;3.992;2022-08-07T05:43:13;16.00;99.90
21592;DHT22;10958;50.892;3.992;2022-08-07T05:45:42;15.90;99.90
21592;DHT22;10958;50.892;3.992;2022-08-07T05:48:08;16.00;99.90
21592;DHT22;10958;50.892;3.992;2022-08-07T05:50:34;16.10;99.90
21592;DHT22;10958;50.892;3.992;2022-08-07T05:53:01;16.30;99.90
21592;DHT22;10958;50.892;3.992;2022-08-07T05:55:28;16.50;99.90
21592;DHT22;10958;50.892;3.992;2022-08-07T05:57:55;16.60;99.90
21592;DHT22;10958;50.892;3.992;2022-08-07T06:00:23;16.60;99.90
21592;DHT22;10958;50.892;3.992;2022-08-07T06:02:50;16.50;99.90
21592;DHT22;10958;50.892;3.992;2022-08-07T06:05:19;16.40;99.90
21592;DHT22;10958;50.892;3.992;2022-08-07T06:07:47;16.50;99.90
21592;DHT22;10958;50.892;3.992;2022-08-07T06:10:13;16.60;99.90
21592;DHT22;10958;50.892;3.992;2022-08-07T06:12:39;17.10;99.90
21592;DHT22;10958;50.892;3.992;2022-08-07T06:15:06;18.10;99.90
21592;DHT22;10958;50.892;3.992;2022-08-07T06:17:33;19.50;99.90
21592;DHT22;10958;50.892;3.992;2022-08-07T06:20:00;20.50;99.90
21592;DHT22;10958;50.892;3.992;2022-08-07T06:22:27;21.80;99.90
21592;DHT22;10958;50.892;3.992;2022-08-07T06:24:53;22.40;99.90
21592;DHT22;10958;50.892;3.992;2022-08-07T06:27:22;23.00;99.90
21592;DHT22;10958;50.892;3.992;2022-08-07T06:29:50;23.40;99.90
21592;DHT22;10958;50.892;3.992;2022-08-07T06:32:16;23.30;99.90
21592;DHT22;10958;50.892;3.992;2022-08-07T06:34:41;23.50;99.90
21592;DHT22;10958;50.892;3.992;2022-08-07T06:37:07;24.20;99.90
21592;DHT22;10958;50.892;3.992;2022-08-07T06:39:33;24.40;99.90
21592;DHT22;10958;50.892;3.992;2022-08-07T06:42:06;24.80;99.90
21592;DHT22;10958;50.892;3.992;2022-08-07T06:44:33;25.10;99.90
21592;DHT22;10958;50.892;3.992;2022-08-07T06:46:59;25.40;99.90
21592;DHT22;10958;50.892;3.992;2022-08-07T06:49:25;26.20;99.90
21592;DHT22;10958;50.892;3.992;2022-08-07T06:51:52;26.50;99.90
21592;DHT22;10958;50.892;3.992;2022-08-07T06:54:19;26.70;99.90
21592;DHT22;10958;50.892;3.992;2022-08-07T06:56:46;25.80;99.90
21592;DHT22;10958;50.892;3.992;2022-08-07T06:59:25;26.50;99.90
21592;DHT22;10958;50.892;3.992;2022-08-07T07:01:51;25.90;99.90
21592;DHT22;10958;50.892;3.992;2022-08-07T07:04:19;25.30;99.90
21592;DHT22;10958;50.892;3.992;2022-08-07T07:06:44;25.60;99.90
21592;DHT22;10958;50.892;3.992;2022-08-07T07:09:24;25.40;99.90
21592;DHT22;10958;50.892;3.992;2022-08-07T07:12:00;26.10;99.90
21592;DHT22;10958;50.892;3.992;2022-08-07T07:14:52;26.50;99.90
21592;DHT22;10958;50.892;3.992;2022-08-07T07:17:36;26.10;99.90
21592;DHT22;10958;50.892;3.992;2022-08-07T07:20:10;26.40;99.90
21592;DHT22;10958;50.892;3.992;2022-08-07T07:22:37;26.70;99.90
21592;DHT22;10958;50.892;3.992;2022-08-07T07:25:04;27.20;99.90
21592;DHT22;10958;50.892;3.992;2022-08-07T07:27:34;27.70;99.90
21592;DHT22;10958;50.892;3.992;2022-08-07T07:30:03;27.70;99.90
21592;DHT22;10958;50.892;3.992;2022-08-07T07:32:30;27.70;99.90
21592;DHT22;10958;50.892;3.992;2022-08-07T07:34:59;27.90;99.90
21592;DHT22;10958;50.892;3.992;2022-08-07T07:37:28;27.80;99.90
21592;DHT22;10958;50.892;3.992;2022-08-07T07:39:57;28.00;99.90
21592;DHT22;10958;50.892;3.992;2022-08-07T07:42:25;28.80;99.90
21592;DHT22;10958;50.892;3.992;2022-08-07T07:44:52;29.10;99.90
21592;DHT22;10958;50.892;3.992;2022-08-07T07:47:19;28.40;99.90
21592;DHT22;10958;50.892;3.992;2022-08-07T07:49:46;27.60;99.90
21592;DHT22;10958;50.892;3.992;2022-08-07T07:52:14;27.80;99.90
21592;DHT22;10958;50.892;3.992;2022-08-07T07:54:42;28.10;99.90
21592;DHT22;10958;50.892;3.992;2022-08-07T07:57:11;28.40;99.90
21592;DHT22;10958;50.892;3.992;2022-08-07T07:59:39;28.50;99.90
21592;DHT22;10958;50.892;3.992;2022-08-07T08:02:08;28.90;99.90
21592;DHT22;10958;50.892;3.992;2022-08-07T08:04:36;29.50;99.90
21592;DHT22;10958;50.892;3.992;2022-08-07T08:07:02;29.40;99.90
21592;DHT22;10958;50.892;3.992;2022-08-07T08:09:29;29.10;99.90
21592;DHT22;10958;50.892;3.992;2022-08-07T08:11:56;29.10;99.90
21592;DHT22;10958;50.892;3.992;2022-08-07T08:14:23;28.90;99.90
21592;DHT22;10958;50.892;3.992;2022-08-07T08:16:50;29.20;99.90
21592;DHT22;10958;50.892;3.992;2022-08-07T08:19:18;29.30;99.90
21592;DHT22;10958;50.892;3.992;2022-08-07T08:21:49;29.60;99.90
21592;DHT22;10958;50.892;3.992;2022-08-07T08:24:41;30.10;99.90
21592;DHT22;10958;50.892;3.992;2022-08-07T08:27:28;30.00;99.90
21592;DHT22;10958;50.892;3.992;2022-08-07T08:30:00;29.40;99.90
21592;DHT22;10958;50.892;3.992;2022-08-07T08:32:28;29.80;99.90
21592;DHT22;10958;50.892;3.992;2022-08-07T08:34:57;29.70;99.90
21592;DHT22;10958;50.892;3.992;2022-08-07T08:37:26;29.30;99.90
21592;DHT22;10958;50.892;3.992;2022-08-07T08:39:53;29.60;99.90
21592;DHT22;10958;50.892;3.992;2022-08-07T08:42:44;30.80;99.90
21592;DHT22;10958;50.892;3.992;2022-08-07T08:45:41;31.50;99.90
21592;DHT22;10958;50.892;3.992;2022-08-07T08:50:55;30.60;99.90
21592;DHT22;10958;50.892;3.992;2022-08-07T08:53:36;30.60;99.90
21592;DHT22;10958;50.892;3.992;2022-08-07T08:56:13;29.90;99.90
21592;DHT22;10958;50.892;3.992;2022-08-07T09:04:02;29.40;99.90
21592;DHT22;10958;50.892;3.992;2022-08-07T09:06:58;29.80;99.90
21592;DHT22;10958;50.892;3.992;2022-08-07T09:20:38;29.90;99.90
21592;DHT22;10958;50.892;3.992;2022-08-07T09:23:30;30.10;99.90
21592;DHT22;10958;50.892;3.992;2022-08-07T09:26:21;30.10;99.90
21592;DHT22;10958;50.892;3.992;2022-08-07T09:28:53;28.50;99.90
21592;DHT22;10958;50.892;3.992;2022-08-07T09:31:35;28.30;99.90
21592;DHT22;10958;50.892;3.992;2022-08-07T09:39:44;26.60;99.90
21592;DHT22;10958;50.892;3.992;2022-08-07T09:53:57;27.70;99.90
21592;DHT22;10958;50.892;3.992;2022-08-07T10:11:50;27.40;99.90
21592;DHT22;10958;50.892;3.992;2022-08-07T10:28:56;27.70;99.90
21592;DHT22;10958;50.892;3.992;2022-08-07T10:42:56;27.50;99.90
21592;DHT22;10958;50.892;3.992;2022-08-07T10:45:36;27.10;99.90
21592;DHT22;10958;50.892;3.992;2022-08-07T10:50:48;26.50;99.90
21592;DHT22;10958;50.892;3.992;2022-08-07T10:53:29;25.80;99.90
21592;DHT22;10958;50.892;3.992;2022-08-07T10:56:21;25.50;99.90
21592;DHT22;10958;50.892;3.992;2022-08-07T10:59:17;25.50;99.90
21592;DHT22;10958;50.892;3.992;2022-08-07T11:01:52;25.80;99.90
21592;DHT22;10958;50.892;3.992;2022-08-07T11:04:23;25.50;99.90
21592;DHT22;10958;50.892;3.992;2022-08-07T11:09:40;25.50;99.90
21592;DHT22;10958;50.892;3.992;2022-08-07T11:12:16;25.40;99.90
21592;DHT22;10958;50.892;3.992;2022-08-07T11:14:51;25.50;99.90
21592;DHT22;10958;50.892;3.992;2022-08-07T11:17:23;25.40;99.90
21592;DHT22;10958;50.892;3.992;2022-08-07T11:19:57;25.40;99.90
21592;DHT22;10958;50.892;3.992;2022-08-07T11:25:32;25.70;99.90
21592;DHT22;10958;50.892;3.992;2022-08-07T11:28:07;25.80;99.90
21592;DHT22;10958;50.892;3.992;2022-08-07T11:39:20;25.70;99.90
21592;DHT22;10958;50.892;3.992;2022-08-07T11:41:58;25.60;99.90
21592;DHT22;10958;50.892;3.992;2022-08-07T11:50:43;25.40;99.90
21592;DHT22;10958;50.892;3.992;2022-08-07T12:04:33;25.40;99.90
21592;DHT22;10958;50.892;3.992;2022-08-07T12:07:13;25.40;99.90
21592;DHT22;10958;50.892;3.992;2022-08-07T12:09:48;25.20;99.90
21592;DHT22;10958;50.892;3.992;2022-08-07T12:12:26;25.00;99.90
21592;DHT22;10958;50.892;3.992;2022-08-07T12:15:16;25.10;99.90
21592;DHT22;10958;50.892;3.992;2022-08-07T12:17:47;25.30;99.90
21592;DHT22;10958;50.892;3.992;2022-08-07T12:20:37;25.60;99.90
21592;DHT22;10958;50.892;3.992;2022-08-07T12:25:45;25.50;99.90
21592;DHT22;10958;50.892;3.992;2022-08-07T12:28:41;25.50;99.90
21592;DHT22;10958;50.892;3.992;2022-08-07T12:31:21;25.70;99.90
21592;DHT22;10958;50.892;3.992;2022-08-07T12:33:51;25.60;99.90
21592;DHT22;10958;50.892;3.992;2022-08-07T12:36:18;25.50;99.90
21592;DHT22;10958;50.892;3.992;2022-08-07T12:38:46;25.60;99.90
21592;DHT22;10958;50.892;3.992;2022-08-07T12:41:15;25.70;99.90
21592;DHT22;10958;50.892;3.992;2022-08-07T12:43:43;25.60;99.90
21592;DHT22;10958;50.892;3.992;2022-08-07T12:48:46;25.60;99.90
21592;DHT22;10958;50.892;3.992;2022-08-07T12:51:19;25.70;99.90
21592;DHT22;10958;50.892;3.992;2022-08-07T12:56:43;25.70;99.90
21592;DHT22;10958;50.892;3.992;2022-08-07T12:59:17;25.80;99.90
21592;DHT22;10958;50.892;3.992;2022-08-07T13:10:51;25.40;99.90
21592;DHT22;10958;50.892;3.992;2022-08-07T13:16:14;25.50;99.90
21592;DHT22;10958;50.892;3.992;2022-08-07T13:19:22;25.60;99.90
21592;DHT22;10958;50.892;3.992;2022-08-07T13:22:12;25.50;99.90
21592;DHT22;10958;50.892;3.992;2022-08-07T13:25:47;25.70;99.90
21592;DHT22;10958;50.892;3.992;2022-08-07T13:27:47;25.60;99.90
21592;DHT22;10958;50.892;3.992;2022-08-07T13:30:15;25.70;99.90
21592;DHT22;10958;50.892;3.992;2022-08-07T13:35:28;25.60;99.90
21592;DHT22;10958;50.892;3.992;2022-08-07T13:38:10;25.60;99.90
21592;DHT22;10958;50.892;3.992;2022-08-07T13:40:50;25.60;99.90
21592;DHT22;10958;50.892;3.992;2022-08-07T13:43:25;25.60;99.90
21592;DHT22;10958;50.892;3.992;2022-08-07T13:45:54;25.50;99.90
21592;DHT22;10958;50.892;3.992;2022-08-07T13:48:22;25.50;99.90
21592;DHT22;10958;50.892;3.992;2022-08-07T13:50:49;25.40;99.90
21592;DHT22;10958;50.892;3.992;2022-08-07T13:53:29;25.40;99.90
21592;DHT22;10958;50.892;3.992;2022-08-07T13:55:56;25.50;99.90
21592;DHT22;10958;50.892;3.992;2022-08-07T13:58:24;25.60;99.90
21592;DHT22;10958;50.892;3.992;2022-08-07T14:01:13;25.70;99.90
21592;DHT22;10958;50.892;3.992;2022-08-07T14:03:40;25.50;99.90
21592;DHT22;10958;50.892;3.992;2022-08-07T14:06:07;25.50;99.90
21592;DHT22;10958;50.892;3.992;2022-08-07T14:08:46;25.40;99.90
21592;DHT22;10958;50.892;3.992;2022-08-07T14:11:14;25.50;99.90
21592;DHT22;10958;50.892;3.992;2022-08-07T14:13:41;25.50;99.90
21592;DHT22;10958;50.892;3.992;2022-08-07T14:16:13;25.40;99.90
21592;DHT22;10958;50.892;3.992;2022-08-07T14:18:44;25.40;99.90
21592;DHT22;10958;50.892;3.992;2022-08-07T14:21:14;25.40;99.90
21592;DHT22;10958;50.892;3.992;2022-08-07T14:23:55;25.50;99.90
21592;DHT22;10958;50.892;3.992;2022-08-07T14:26:26;25.60;99.90
21592;DHT22;10958;50.892;3.992;2022-08-07T14:28:55;25.70;99.90
21592;DHT22;10958;50.892;3.992;2022-08-07T14:31:22;25.40;99.90
21592;DHT22;10958;50.892;3.992;2022-08-07T14:33:50;25.30;99.90
21592;DHT22;10958;50.892;3.992;2022-08-07T14:36:19;25.50;99.90
21592;DHT22;10958;50.892;3.992;2022-08-07T14:38:46;25.80;99.90
21592;DHT22;10958;50.892;3.992;2022-08-07T14:41:26;25.80;99.90
21592;DHT22;10958;50.892;3.992;2022-08-07T14:43:54;25.90;99.90
21592;DHT22;10958;50.892;3.992;2022-08-07T14:46:21;25.80;99.90
21592;DHT22;10958;50.892;3.992;2022-08-07T14:48:50;25.70;99.90
21592;DHT22;10958;50.892;3.992;2022-08-07T14:51:23;25.40;99.90
21592;DHT22;10958;50.892;3.992;2022-08-07T14:53:54;25.40;99.90
21592;DHT22;10958;50.892;3.992;2022-08-07T14:56:22;25.60;99.90
21592;DHT22;10958;50.892;3.992;2022-08-07T14:58:52;25.70;99.90
21592;DHT22;10958;50.892;3.992;2022-08-07T15:01:22;25.60;99.90
21592;DHT22;10958;50.892;3.992;2022-08-07T15:03:49;25.70;99.90
21592;DHT22;10958;50.892;3.992;2022-08-07T15:06:21;25.80;99.90
21592;DHT22;10958;50.892;3.992;2022-08-07T15:08:48;25.80;99.90
21592;DHT22;10958;50.892;3.992;2022-08-07T15:11:20;25.90;99.90
21592;DHT22;10958;50.892;3.992;2022-08-07T15:14:00;25.80;99.90
21592;DHT22;10958;50.892;3.992;2022-08-07T15:16:47;25.60;99.90
21592;DHT22;10958;50.892;3.992;2022-08-07T15:19:17;25.60;99.90
21592;DHT22;10958;50.892;3.992;2022-08-07T15:21:44;25.70;99.90
21592;DHT22;10958;50.892;3.992;2022-08-07T15:24:24;25.60;99.90
21592;DHT22;10958;50.892;3.992;2022-08-07T15:27:22;25.50;99.90
21592;DHT22;10958;50.892;3.992;2022-08-07T15:29:53;25.60;99.90
21592;DHT22;10958;50.892;3.992;2022-08-07T15:32:24;25.60;99.90
21592;DHT22;10958;50.892;3.992;2022-08-07T15:34:51;25.60;99.90
21592;DHT22;10958;50.892;3.992;2022-08-07T15:37:21;25.80;99.90
21592;DHT22;10958;50.892;3.992;2022-08-07T15:40:02;25.60;99.90
21592;DHT22;10958;50.892;3.992;2022-08-07T15:42:46;25.60;99.90
21592;DHT22;10958;50.892;3.992;2022-08-07T15:47:52;25.50;99.90
21592;DHT22;10958;50.892;3.992;2022-08-07T15:50:20;25.50;99.90
21592;DHT22;10958;50.892;3.992;2022-08-07T15:52:46;25.40;99.90
21592;DHT22;10958;50.892;3.992;2022-08-07T15:55:17;25.40;99.90
21592;DHT22;10958;50.892;3.992;2022-08-07T15:57:50;25.60;99.90
21592;DHT22;10958;50.892;3.992;2022-08-07T16:00:20;25.70;99.90
21592;DHT22;10958;50.892;3.992;2022-08-07T16:02:48;25.60;99.90
21592;DHT22;10958;50.892;3.992;2022-08-07T16:05:19;25.40;99.90
21592;DHT22;10958;50.892;3.992;2022-08-07T16:07:52;25.50;99.90
21592;DHT22;10958;50.892;3.992;2022-08-07T16:10:21;25.30;99.90
21592;DHT22;10958;50.892;3.992;2022-08-07T16:30:14;25.10;99.90
21592;DHT22;10958;50.892;3.992;2022-08-07T16:32:48;25.20;99.90
21592;DHT22;10958;50.892;3.992;2022-08-07T16:54:28;24.50;99.90
21592;DHT22;10958;50.892;3.992;2022-08-07T16:59:47;24.50;99.90
21592;DHT22;10958;50.892;3.992;2022-08-07T17:02:27;24.50;99.90
21592;DHT22;10958;50.892;3.992;2022-08-07T17:07:58;24.40;99.90
21592;DHT22;10958;50.892;3.992;2022-08-07T17:10:47;24.40;99.90
21592;DHT22;10958;50.892;3.992;2022-08-07T17:18:43;24.00;99.90
21592;DHT22;10958;50.892;3.992;2022-08-07T17:21:21;24.00;99.90
21592;DHT22;10958;50.892;3.992;2022-08-07T17:29:12;24.00;99.90
21592;DHT22;10958;50.892;3.992;2022-08-07T17:32:16;23.80;99.90
21592;DHT22;10958;50.892;3.992;2022-08-07T17:34:53;23.60;99.90
21592;DHT22;10958;50.892;3.992;2022-08-07T17:37:28;23.70;99.90
21592;DHT22;10958;50.892;3.992;2022-08-07T17:40:02;23.70;99.90
21592;DHT22;10958;50.892;3.992;2022-08-07T17:43:00;23.70;99.90
21592;DHT22;10958;50.892;3.992;2022-08-07T17:45:31;23.60;99.90
21592;DHT22;10958;50.892;3.992;2022-08-07T17:48:04;23.30;99.90
21592;DHT22;10958;50.892;3.992;2022-08-07T17:50:44;23.30;99.90
21592;DHT22;10958;50.892;3.992;2022-08-07T17:53:56;23.20;99.90
21592;DHT22;10958;50.892;3.992;2022-08-07T17:56:31;23.30;99.90
21592;DHT22;10958;50.892;3.992;2022-08-07T18:01:35;23.30;99.90
21592;DHT22;10958;50.892;3.992;2022-08-07T18:04:46;23.20;99.90
21592;DHT22;10958;50.892;3.992;2022-08-07T18:09:29;22.80;99.90
21592;DHT22;10958;50.892;3.992;2022-08-07T18:12:03;22.80;99.90
21592;DHT22;10958;50.892;3.992;2022-08-07T18:17:33;22.70;99.90
21592;DHT22;10958;50.892;3.992;2022-08-07T18:20:09;22.60;99.90
21592;DHT22;10958;50.892;3.992;2022-08-07T18:22:49;22.50;99.90
21592;DHT22;10958;50.892;3.992;2022-08-07T18:25:23;22.50;99.90
21592;DHT22;10958;50.892;3.992;2022-08-07T18:30:36;22.20;99.90
21592;DHT22;10958;50.892;3.992;2022-08-07T18:39:13;22.00;99.90
21592;DHT22;10958;50.892;3.992;2022-08-07T18:47:09;21.80;99.90
21592;DHT22;10958;50.892;3.992;2022-08-07T18:52:46;21.70;99.90
21592;DHT22;10958;50.892;3.992;2022-08-07T18:58:18;21.40;99.90
21592;DHT22;10958;50.892;3.992;2022-08-07T19:00:48;21.20;99.90
21592;DHT22;10958;50.892;3.992;2022-08-07T19:06:52;21.10;99.90
21592;DHT22;10958;50.892;3.992;2022-08-07T19:12:17;20.90;99.90
21592;DHT22;10958;50.892;3.992;2022-08-07T19:15:03;20.80;99.90
21592;DHT22;10958;50.892;3.992;2022-08-07T19:20:18;20.90;99.90
21592;DHT22;10958;50.892;3.992;2022-08-07T19:23:21;20.70;99.90
21592;DHT22;10958;50.892;3.992;2022-08-07T19:25:51;20.70;99.90
21592;DHT22;10958;50.892;3.992;2022-08-07T19:28:22;20.80;99.90
21592;DHT22;10958;50.892;3.992;2022-08-07T19:30:58;20.80;99.90
21592;DHT22;10958;50.892;3.992;2022-08-07T19:33:32;20.50;99.90
21592;DHT22;10958;50.892;3.992;2022-08-07T19:36:00;20.40;99.90
21592;DHT22;10958;50.892;3.992;2022-08-07T19:38:28;20.40;99.90
21592;DHT22;10958;50.892;3.992;2022-08-07T19:40:58;20.40;99.90
21592;DHT22;10958;50.892;3.992;2022-08-07T19:43:27;20.30;99.90
21592;DHT22;10958;50.892;3.992;2022-08-07T19:45:57;20.20;99.90
21592;DHT22;10958;50.892;3.992;2022-08-07T19:48:40;20.20;99.90
21592;DHT22;10958;50.892;3.992;2022-08-07T19:51:07;20.00;99.90
21592;DHT22;10958;50.892;3.992;2022-08-07T19:53:34;20.00;99.90
21592;DHT22;10958;50.892;3.992;2022-08-07T19:56:05;20.00;99.90
21592;DHT22;10958;50.892;3.992;2022-08-07T19:58:32;19.90;99.90
21592;DHT22;10958;50.892;3.992;2022-08-07T20:00:59;20.00;99.90
21592;DHT22;10958;50.892;3.992;2022-08-07T20:03:25;20.00;99.90
21592;DHT22;10958;50.892;3.992;2022-08-07T20:05:59;19.90;99.90
21592;DHT22;10958;50.892;3.992;2022-08-07T20:08:31;19.90;99.90
21592;DHT22;10958;50.892;3.992;2022-08-07T20:11:01;19.80;99.90